sensor_id;sensor_type;location;lat;lon;timestamp;P1;durP1;ratioP1;P2;durP2;ratioP2
63218;SDS011;49320;52.512;13.448;2024-02-14T00:00:53;11.50;;;7.45;;
63218;SDS011;49320;52.512;13.448;2024-02-14T00:03:22;8.50;;;6.93;;
63218;SDS011;49320;52.512;13.448;2024-02-14T00:05:50;7.20;;;6.10;;
63218;SDS011;49320;52.512;13.448;2024-02-14T00:08:18;7.43;;;5.88;;
63218;SDS011;49320;52.512;13.448;2024-02-14T00:10:46;11.65;;;5.95;;
63218;SDS011;49320;52.512;13.448;2024-02-14T00:13:15;13.82;;;6.72;;
63218;SDS011;49320;52.512;13.448;2024-02-14T00:15:44;11.80;;;6.68;;
63218;SDS011;49320;52.512;13.448;2024-02-14T00:18:12;10.25;;;6.18;;
63218;SDS011;49320;52.512;13.448;2024-02-14T00:20:41;7.90;;;6.28;;
63218;SDS011;49320;52.512;13.448;2024-02-14T00:23:09;9.02;;;6.82;;
63218;SDS011;49320;52.512;13.448;2024-02-14T00:25:36;8.73;;;5.55;;
63218;SDS011;49320;52.512;13.448;2024-02-14T00:28:03;8.02;;;6.25;;
63218;SDS011;49320;52.512;13.448;2024-02-14T00:30:31;9.45;;;6.68;;
63218;SDS011;49320;52.512;13.448;2024-02-14T00:32:59;11.10;;;6.70;;
63218;SDS011;49320;52.512;13.448;2024-02-14T00:35:26;8.20;;;5.97;;
63218;SDS011;49320;52.512;13.448;2024-02-14T00:37:53;7.97;;;6.03;;
63218;SDS011;49320;52.512;13.448;2024-02-14T00:40:20;8.60;;;5.97;;
63218;SDS011;49320;52.512;13.448;2024-02-14T00:42:47;6.88;;;5.35;;
63218;SDS011;49320;52.512;13.448;2024-02-14T00:45:14;7.25;;;5.78;;
63218;SDS011;49320;52.512;13.448;2024-02-14T00:47:41;7.82;;;6.13;;
63218;SDS011;49320;52.512;13.448;2024-02-14T00:50:09;8.32;;;5.40;;
63218;SDS011;49320;52.512;13.448;2024-02-14T00:52:36;7.40;;;5.25;;
63218;SDS011;49320;52.512;13.448;2024-02-14T00:55:03;7.88;;;5.80;;
63218;SDS011;49320;52.512;13.448;2024-02-14T00:57:31;6.55;;;5.85;;
63218;SDS011;49320;52.512;13.448;2024-02-14T00:59:58;8.68;;;5.65;;
63218;SDS011;49320;52.512;13.448;2024-02-14T01:02:26;6.93;;;5.32;;
63218;SDS011;49320;52.512;13.448;2024-02-14T01:04:53;8.77;;;6.63;;
63218;SDS011;49320;52.512;13.448;2024-02-14T01:07:20;9.02;;;5.65;;
63218;SDS011;49320;52.512;13.448;2024-02-14T01:09:47;7.15;;;5.47;;
63218;SDS011;49320;52.512;13.448;2024-02-14T01:12:16;10.38;;;6.10;;
63218;SDS011;49320;52.512;13.448;2024-02-14T01:14:43;7.78;;;5.80;;
63218;SDS011;49320;52.512;13.448;2024-02-14T01:17:11;6.80;;;5.75;;
63218;SDS011;49320;52.512;13.448;2024-02-14T01:19:38;7.93;;;5.82;;
63218;SDS011;49320;52.512;13.448;2024-02-14T01:22:05;6.05;;;5.35;;
63218;SDS011;49320;52.512;13.448;2024-02-14T01:24:34;7.18;;;5.50;;
63218;SDS011;49320;52.512;13.448;2024-02-14T01:27:01;6.70;;;5.80;;
63218;SDS011;49320;52.512;13.448;2024-02-14T01:29:30;5.97;;;4.78;;
63218;SDS011;49320;52.512;13.448;2024-02-14T01:31:57;6.00;;;5.13;;
63218;SDS011;49320;52.512;13.448;2024-02-14T01:34:24;6.82;;;5.72;;
63218;SDS011;49320;52.512;13.448;2024-02-14T01:36:51;5.50;;;4.70;;
63218;SDS011;49320;52.512;13.448;2024-02-14T01:39:18;7.03;;;5.10;;
63218;SDS011;49320;52.512;13.448;2024-02-14T01:41:46;6.95;;;5.50;;
63218;SDS011;49320;52.512;13.448;2024-02-14T01:44:15;8.27;;;5.63;;
63218;SDS011;49320;52.512;13.448;2024-02-14T01:46:43;5.18;;;4.50;;
63218;SDS011;49320;52.512;13.448;2024-02-14T01:49:11;6.28;;;4.72;;
63218;SDS011;49320;52.512;13.448;2024-02-14T01:51:39;7.30;;;5.50;;
63218;SDS011;49320;52.512;13.448;2024-02-14T01:54:11;7.43;;;5.13;;
63218;SDS011;49320;52.512;13.448;2024-02-14T01:56:40;5.22;;;4.63;;
63218;SDS011;49320;52.512;13.448;2024-02-14T01:59:08;5.32;;;4.65;;
63218;SDS011;49320;52.512;13.448;2024-02-14T02:01:36;6.03;;;4.38;;
63218;SDS011;49320;52.512;13.448;2024-02-14T02:04:03;5.43;;;4.57;;
63218;SDS011;49320;52.512;13.448;2024-02-14T02:06:30;11.60;;;4.78;;
63218;SDS011;49320;52.512;13.448;2024-02-14T02:08:58;5.75;;;4.85;;
63218;SDS011;49320;52.512;13.448;2024-02-14T02:11:26;7.18;;;4.55;;
63218;SDS011;49320;52.512;13.448;2024-02-14T02:13:53;7.35;;;5.20;;
63218;SDS011;49320;52.512;13.448;2024-02-14T02:16:21;9.98;;;4.72;;
63218;SDS011;49320;52.512;13.448;2024-02-14T02:18:48;6.93;;;5.38;;
63218;SDS011;49320;52.512;13.448;2024-02-14T02:21:16;5.70;;;5.10;;
63218;SDS011;49320;52.512;13.448;2024-02-14T02:23:49;4.85;;;4.35;;
63218;SDS011;49320;52.512;13.448;2024-02-14T02:26:16;5.63;;;4.57;;
63218;SDS011;49320;52.512;13.448;2024-02-14T02:28:43;5.65;;;4.55;;
63218;SDS011;49320;52.512;13.448;2024-02-14T02:31:10;5.90;;;4.45;;
63218;SDS011;49320;52.512;13.448;2024-02-14T02:33:37;5.35;;;4.68;;
63218;SDS011;49320;52.512;13.448;2024-02-14T02:36:05;6.38;;;4.65;;
63218;SDS011;49320;52.512;13.448;2024-02-14T02:38:33;5.20;;;4.57;;
63218;SDS011;49320;52.512;13.448;2024-02-14T02:41:03;6.53;;;4.82;;
63218;SDS011;49320;52.512;13.448;2024-02-14T02:43:34;7.63;;;4.93;;
63218;SDS011;49320;52.512;13.448;2024-02-14T02:46:01;7.38;;;4.55;;
63218;SDS011;49320;52.512;13.448;2024-02-14T02:48:29;5.85;;;4.10;;
63218;SDS011;49320;52.512;13.448;2024-02-14T02:50:58;6.70;;;4.38;;
63218;SDS011;49320;52.512;13.448;2024-02-14T02:53:25;4.60;;;4.07;;
63218;SDS011;49320;52.512;13.448;2024-02-14T02:55:53;5.10;;;4.18;;
63218;SDS011;49320;52.512;13.448;2024-02-14T02:58:21;5.15;;;4.05;;
63218;SDS011;49320;52.512;13.448;2024-02-14T03:00:47;6.68;;;4.78;;
63218;SDS011;49320;52.512;13.448;2024-02-14T03:03:19;7.68;;;4.45;;
63218;SDS011;49320;52.512;13.448;2024-02-14T03:05:48;4.55;;;4.15;;
63218;SDS011;49320;52.512;13.448;2024-02-14T03:08:15;4.97;;;4.10;;
63218;SDS011;49320;52.512;13.448;2024-02-14T03:10:42;6.78;;;4.18;;
63218;SDS011;49320;52.512;13.448;2024-02-14T03:13:12;7.07;;;4.45;;
63218;SDS011;49320;52.512;13.448;2024-02-14T03:15:39;5.28;;;4.15;;
63218;SDS011;49320;52.512;13.448;2024-02-14T03:18:05;4.72;;;4.00;;
63218;SDS011;49320;52.512;13.448;2024-02-14T03:20:36;4.32;;;3.50;;
63218;SDS011;49320;52.512;13.448;2024-02-14T03:23:03;6.03;;;4.13;;
63218;SDS011;49320;52.512;13.448;2024-02-14T03:25:30;5.88;;;3.97;;
63218;SDS011;49320;52.512;13.448;2024-02-14T03:27:57;5.88;;;4.07;;
63218;SDS011;49320;52.512;13.448;2024-02-14T03:30:25;5.47;;;4.47;;
63218;SDS011;49320;52.512;13.448;2024-02-14T03:32:52;4.97;;;4.22;;
63218;SDS011;49320;52.512;13.448;2024-02-14T03:35:19;4.47;;;4.07;;
63218;SDS011;49320;52.512;13.448;2024-02-14T03:37:48;5.00;;;3.90;;
63218;SDS011;49320;52.512;13.448;2024-02-14T03:40:18;4.40;;;3.58;;
63218;SDS011;49320;52.512;13.448;2024-02-14T03:42:48;5.53;;;4.22;;
63218;SDS011;49320;52.512;13.448;2024-02-14T03:45:15;6.50;;;4.30;;
63218;SDS011;49320;52.512;13.448;2024-02-14T03:47:42;7.72;;;4.75;;
63218;SDS011;49320;52.512;13.448;2024-02-14T03:50:09;5.55;;;4.47;;
63218;SDS011;49320;52.512;13.448;2024-02-14T03:52:36;5.55;;;4.45;;
63218;SDS011;49320;52.512;13.448;2024-02-14T03:55:04;6.30;;;4.97;;
63218;SDS011;49320;52.512;13.448;2024-02-14T03:57:32;6.63;;;5.13;;
63218;SDS011;49320;52.512;13.448;2024-02-14T04:00:01;6.05;;;4.78;;
63218;SDS011;49320;52.512;13.448;2024-02-14T04:02:30;9.48;;;5.82;;
63218;SDS011;49320;52.512;13.448;2024-02-14T04:04:58;5.28;;;4.72;;
63218;SDS011;49320;52.512;13.448;2024-02-14T04:07:25;7.25;;;5.57;;
63218;SDS011;49320;52.512;13.448;2024-02-14T04:09:52;6.50;;;5.68;;
63218;SDS011;49320;52.512;13.448;2024-02-14T04:12:19;7.30;;;5.60;;
63218;SDS011;49320;52.512;13.448;2024-02-14T04:14:46;7.15;;;5.78;;
63218;SDS011;49320;52.512;13.448;2024-02-14T04:17:13;7.03;;;5.47;;
63218;SDS011;49320;52.512;13.448;2024-02-14T04:19:40;5.93;;;5.30;;
63218;SDS011;49320;52.512;13.448;2024-02-14T04:22:07;6.32;;;5.30;;
63218;SDS011;49320;52.512;13.448;2024-02-14T04:24:34;6.53;;;5.18;;
63218;SDS011;49320;52.512;13.448;2024-02-14T04:27:02;7.30;;;5.68;;
63218;SDS011;49320;52.512;13.448;2024-02-14T04:29:31;10.15;;;6.45;;
63218;SDS011;49320;52.512;13.448;2024-02-14T04:32:00;10.30;;;5.75;;
63218;SDS011;49320;52.512;13.448;2024-02-14T04:34:27;6.72;;;5.75;;
63218;SDS011;49320;52.512;13.448;2024-02-14T04:36:54;8.07;;;6.03;;
63218;SDS011;49320;52.512;13.448;2024-02-14T04:39:21;6.72;;;5.40;;
63218;SDS011;49320;52.512;13.448;2024-02-14T04:41:47;6.88;;;6.07;;
63218;SDS011;49320;52.512;13.448;2024-02-14T04:44:27;7.10;;;6.25;;
63218;SDS011;49320;52.512;13.448;2024-02-14T04:46:54;8.80;;;6.25;;
63218;SDS011;49320;52.512;13.448;2024-02-14T04:49:22;10.10;;;6.70;;
63218;SDS011;49320;52.512;13.448;2024-02-14T04:51:49;9.32;;;6.13;;
63218;SDS011;49320;52.512;13.448;2024-02-14T04:54:17;14.55;;;6.63;;
63218;SDS011;49320;52.512;13.448;2024-02-14T04:56:45;6.80;;;5.70;;
63218;SDS011;49320;52.512;13.448;2024-02-14T04:59:13;8.20;;;6.50;;
63218;SDS011;49320;52.512;13.448;2024-02-14T05:01:40;9.15;;;5.75;;
63218;SDS011;49320;52.512;13.448;2024-02-14T05:04:06;8.35;;;6.18;;
63218;SDS011;49320;52.512;13.448;2024-02-14T05:06:33;9.27;;;6.05;;
63218;SDS011;49320;52.512;13.448;2024-02-14T05:09:01;9.80;;;6.30;;
63218;SDS011;49320;52.512;13.448;2024-02-14T05:11:28;7.60;;;6.35;;
63218;SDS011;49320;52.512;13.448;2024-02-14T05:13:56;8.63;;;5.93;;
63218;SDS011;49320;52.512;13.448;2024-02-14T05:16:23;9.05;;;6.13;;
63218;SDS011;49320;52.512;13.448;2024-02-14T05:18:49;7.40;;;5.93;;
63218;SDS011;49320;52.512;13.448;2024-02-14T05:21:19;11.65;;;6.47;;
63218;SDS011;49320;52.512;13.448;2024-02-14T05:23:47;9.32;;;5.82;;
63218;SDS011;49320;52.512;13.448;2024-02-14T05:26:18;8.95;;;7.13;;
63218;SDS011;49320;52.512;13.448;2024-02-14T05:28:45;7.20;;;6.10;;
63218;SDS011;49320;52.512;13.448;2024-02-14T05:31:12;10.73;;;5.82;;
63218;SDS011;49320;52.512;13.448;2024-02-14T05:33:39;11.55;;;6.97;;
63218;SDS011;49320;52.512;13.448;2024-02-14T05:36:06;6.95;;;5.22;;
63218;SDS011;49320;52.512;13.448;2024-02-14T05:38:33;8.80;;;5.70;;
63218;SDS011;49320;52.512;13.448;2024-02-14T05:41:00;8.07;;;5.95;;
63218;SDS011;49320;52.512;13.448;2024-02-14T05:43:27;7.63;;;5.70;;
63218;SDS011;49320;52.512;13.448;2024-02-14T05:45:54;7.55;;;6.05;;
63218;SDS011;49320;52.512;13.448;2024-02-14T05:48:21;7.97;;;5.70;;
63218;SDS011;49320;52.512;13.448;2024-02-14T05:50:49;6.03;;;4.78;;
63218;SDS011;49320;52.512;13.448;2024-02-14T05:53:16;10.02;;;5.53;;
63218;SDS011;49320;52.512;13.448;2024-02-14T05:55:42;9.07;;;5.75;;
63218;SDS011;49320;52.512;13.448;2024-02-14T05:58:10;7.95;;;5.00;;
63218;SDS011;49320;52.512;13.448;2024-02-14T06:00:36;6.90;;;5.18;;
63218;SDS011;49320;52.512;13.448;2024-02-14T06:03:04;5.35;;;4.60;;
63218;SDS011;49320;52.512;13.448;2024-02-14T06:05:33;7.82;;;4.93;;
63218;SDS011;49320;52.512;13.448;2024-02-14T06:08:00;6.40;;;4.70;;
63218;SDS011;49320;52.512;13.448;2024-02-14T06:10:29;6.70;;;4.82;;
63218;SDS011;49320;52.512;13.448;2024-02-14T06:12:56;7.28;;;5.28;;
63218;SDS011;49320;52.512;13.448;2024-02-14T06:15:23;8.02;;;5.22;;
63218;SDS011;49320;52.512;13.448;2024-02-14T06:17:50;8.25;;;5.30;;
63218;SDS011;49320;52.512;13.448;2024-02-14T06:20:17;7.88;;;4.90;;
63218;SDS011;49320;52.512;13.448;2024-02-14T06:22:44;6.07;;;4.57;;
63218;SDS011;49320;52.512;13.448;2024-02-14T06:25:22;7.20;;;5.38;;
63218;SDS011;49320;52.512;13.448;2024-02-14T06:27:49;5.35;;;4.82;;
63218;SDS011;49320;52.512;13.448;2024-02-14T06:30:16;6.82;;;4.85;;
63218;SDS011;49320;52.512;13.448;2024-02-14T06:32:44;6.97;;;5.05;;
63218;SDS011;49320;52.512;13.448;2024-02-14T06:35:11;5.53;;;4.55;;
63218;SDS011;49320;52.512;13.448;2024-02-14T06:37:41;5.50;;;4.65;;
63218;SDS011;49320;52.512;13.448;2024-02-14T06:40:21;6.80;;;4.70;;
63218;SDS011;49320;52.512;13.448;2024-02-14T06:42:48;7.20;;;4.55;;
63218;SDS011;49320;52.512;13.448;2024-02-14T06:45:18;6.78;;;4.78;;
63218;SDS011;49320;52.512;13.448;2024-02-14T06:47:45;7.97;;;4.60;;
63218;SDS011;49320;52.512;13.448;2024-02-14T06:50:12;8.07;;;5.32;;
63218;SDS011;49320;52.512;13.448;2024-02-14T06:52:38;8.25;;;4.82;;
63218;SDS011;49320;52.512;13.448;2024-02-14T06:55:05;7.43;;;4.97;;
63218;SDS011;49320;52.512;13.448;2024-02-14T06:57:33;6.63;;;4.90;;
63218;SDS011;49320;52.512;13.448;2024-02-14T07:00:00;6.97;;;4.88;;
63218;SDS011;49320;52.512;13.448;2024-02-14T07:02:27;9.05;;;4.90;;
63218;SDS011;49320;52.512;13.448;2024-02-14T07:04:54;9.90;;;5.07;;
63218;SDS011;49320;52.512;13.448;2024-02-14T07:07:21;7.25;;;5.57;;
63218;SDS011;49320;52.512;13.448;2024-02-14T07:09:48;6.38;;;5.10;;
63218;SDS011;49320;52.512;13.448;2024-02-14T07:12:15;8.02;;;5.30;;
63218;SDS011;49320;52.512;13.448;2024-02-14T07:14:42;7.40;;;4.93;;
63218;SDS011;49320;52.512;13.448;2024-02-14T07:17:08;6.03;;;4.57;;
63218;SDS011;49320;52.512;13.448;2024-02-14T07:19:35;9.05;;;5.20;;
63218;SDS011;49320;52.512;13.448;2024-02-14T07:22:04;10.05;;;5.30;;
63218;SDS011;49320;52.512;13.448;2024-02-14T07:24:31;9.05;;;5.20;;
63218;SDS011;49320;52.512;13.448;2024-02-14T07:26:58;8.07;;;5.10;;
63218;SDS011;49320;52.512;13.448;2024-02-14T07:29:25;7.55;;;4.55;;
63218;SDS011;49320;52.512;13.448;2024-02-14T07:31:52;5.63;;;4.65;;
63218;SDS011;49320;52.512;13.448;2024-02-14T07:34:18;6.47;;;4.68;;
63218;SDS011;49320;52.512;13.448;2024-02-14T07:36:46;11.68;;;5.45;;
63218;SDS011;49320;52.512;13.448;2024-02-14T07:39:12;10.52;;;4.80;;
63218;SDS011;49320;52.512;13.448;2024-02-14T07:41:40;5.10;;;3.60;;
63218;SDS011;49320;52.512;13.448;2024-02-14T07:44:06;6.93;;;4.43;;
63218;SDS011;49320;52.512;13.448;2024-02-14T07:46:33;7.55;;;4.38;;
63218;SDS011;49320;52.512;13.448;2024-02-14T07:49:00;6.40;;;4.25;;
63218;SDS011;49320;52.512;13.448;2024-02-14T07:51:27;6.43;;;4.20;;
63218;SDS011;49320;52.512;13.448;2024-02-14T07:53:55;5.05;;;4.35;;
63218;SDS011;49320;52.512;13.448;2024-02-14T07:56:22;5.30;;;4.22;;
63218;SDS011;49320;52.512;13.448;2024-02-14T07:58:49;5.60;;;4.28;;
63218;SDS011;49320;52.512;13.448;2024-02-14T08:01:16;7.03;;;3.90;;
63218;SDS011;49320;52.512;13.448;2024-02-14T08:03:43;6.22;;;4.15;;
63218;SDS011;49320;52.512;13.448;2024-02-14T08:06:12;5.57;;;4.07;;
63218;SDS011;49320;52.512;13.448;2024-02-14T08:08:40;6.07;;;4.20;;
63218;SDS011;49320;52.512;13.448;2024-02-14T08:11:07;7.43;;;3.97;;
63218;SDS011;49320;52.512;13.448;2024-02-14T08:13:34;4.75;;;3.97;;
63218;SDS011;49320;52.512;13.448;2024-02-14T08:16:01;6.82;;;4.32;;
63218;SDS011;49320;52.512;13.448;2024-02-14T08:18:28;6.88;;;4.55;;
63218;SDS011;49320;52.512;13.448;2024-02-14T08:20:55;6.18;;;4.47;;
63218;SDS011;49320;52.512;13.448;2024-02-14T08:23:22;6.05;;;4.90;;
63218;SDS011;49320;52.512;13.448;2024-02-14T08:25:49;5.90;;;4.25;;
63218;SDS011;49320;52.512;13.448;2024-02-14T08:28:15;6.00;;;4.15;;
63218;SDS011;49320;52.512;13.448;2024-02-14T08:30:44;5.50;;;4.32;;
63218;SDS011;49320;52.512;13.448;2024-02-14T08:33:11;8.63;;;4.90;;
63218;SDS011;49320;52.512;13.448;2024-02-14T08:35:38;5.40;;;4.55;;
63218;SDS011;49320;52.512;13.448;2024-02-14T08:38:09;4.90;;;4.00;;
63218;SDS011;49320;52.512;13.448;2024-02-14T08:40:36;4.95;;;3.78;;
63218;SDS011;49320;52.512;13.448;2024-02-14T08:43:03;5.85;;;4.30;;
63218;SDS011;49320;52.512;13.448;2024-02-14T08:45:31;5.05;;;3.50;;
63218;SDS011;49320;52.512;13.448;2024-02-14T08:47:58;8.07;;;4.28;;
63218;SDS011;49320;52.512;13.448;2024-02-14T08:50:25;5.28;;;3.65;;
63218;SDS011;49320;52.512;13.448;2024-02-14T08:52:52;4.97;;;3.75;;
63218;SDS011;49320;52.512;13.448;2024-02-14T08:55:19;4.97;;;3.78;;
63218;SDS011;49320;52.512;13.448;2024-02-14T08:57:45;5.82;;;4.07;;
63218;SDS011;49320;52.512;13.448;2024-02-14T09:00:14;7.38;;;4.22;;
63218;SDS011;49320;52.512;13.448;2024-02-14T09:02:46;6.75;;;4.20;;
63218;SDS011;49320;52.512;13.448;2024-02-14T09:05:14;7.57;;;3.55;;
63218;SDS011;49320;52.512;13.448;2024-02-14T09:07:43;4.20;;;2.95;;
63218;SDS011;49320;52.512;13.448;2024-02-14T09:10:10;5.38;;;3.88;;
63218;SDS011;49320;52.512;13.448;2024-02-14T09:12:39;5.30;;;3.92;;
63218;SDS011;49320;52.512;13.448;2024-02-14T09:15:07;8.07;;;5.43;;
63218;SDS011;49320;52.512;13.448;2024-02-14T09:17:34;6.50;;;4.90;;
63218;SDS011;49320;52.512;13.448;2024-02-14T09:20:01;6.05;;;4.30;;
63218;SDS011;49320;52.512;13.448;2024-02-14T09:22:29;7.28;;;4.40;;
63218;SDS011;49320;52.512;13.448;2024-02-14T09:24:56;6.15;;;3.90;;
63218;SDS011;49320;52.512;13.448;2024-02-14T09:27:23;6.20;;;3.80;;
63218;SDS011;49320;52.512;13.448;2024-02-14T09:29:50;4.55;;;3.58;;
63218;SDS011;49320;52.512;13.448;2024-02-14T09:32:17;4.75;;;3.65;;
63218;SDS011;49320;52.512;13.448;2024-02-14T09:34:44;4.25;;;2.88;;
63218;SDS011;49320;52.512;13.448;2024-02-14T09:37:12;5.07;;;3.22;;
63218;SDS011;49320;52.512;13.448;2024-02-14T09:39:39;5.38;;;3.28;;
63218;SDS011;49320;52.512;13.448;2024-02-14T09:42:08;4.97;;;3.00;;
63218;SDS011;49320;52.512;13.448;2024-02-14T09:44:40;3.08;;;2.67;;
63218;SDS011;49320;52.512;13.448;2024-02-14T09:47:07;3.80;;;2.72;;
63218;SDS011;49320;52.512;13.448;2024-02-14T09:49:36;3.83;;;2.60;;
63218;SDS011;49320;52.512;13.448;2024-02-14T09:52:05;5.28;;;2.80;;
63218;SDS011;49320;52.512;13.448;2024-02-14T09:54:34;5.13;;;2.88;;
63218;SDS011;49320;52.512;13.448;2024-02-14T09:57:05;3.47;;;2.50;;
63218;SDS011;49320;52.512;13.448;2024-02-14T09:59:32;4.28;;;2.70;;
63218;SDS011;49320;52.512;13.448;2024-02-14T10:02:01;3.30;;;2.53;;
63218;SDS011;49320;52.512;13.448;2024-02-14T10:04:28;5.22;;;2.80;;
63218;SDS011;49320;52.512;13.448;2024-02-14T10:06:55;4.05;;;2.42;;
63218;SDS011;49320;52.512;13.448;2024-02-14T10:09:22;3.45;;;2.38;;
63218;SDS011;49320;52.512;13.448;2024-02-14T10:11:51;4.78;;;2.97;;
63218;SDS011;49320;52.512;13.448;2024-02-14T10:14:18;4.57;;;3.30;;
63218;SDS011;49320;52.512;13.448;2024-02-14T10:16:45;3.75;;;2.28;;
63218;SDS011;49320;52.512;13.448;2024-02-14T10:19:19;4.32;;;2.90;;
63218;SDS011;49320;52.512;13.448;2024-02-14T10:21:56;3.28;;;2.30;;
63218;SDS011;49320;52.512;13.448;2024-02-14T10:24:25;4.88;;;3.00;;
63218;SDS011;49320;52.512;13.448;2024-02-14T10:26:53;3.75;;;2.65;;
63218;SDS011;49320;52.512;13.448;2024-02-14T10:29:24;4.30;;;3.40;;
63218;SDS011;49320;52.512;13.448;2024-02-14T10:31:52;7.15;;;3.70;;
63218;SDS011;49320;52.512;13.448;2024-02-14T10:34:19;3.90;;;2.55;;
63218;SDS011;49320;52.512;13.448;2024-02-14T10:36:53;4.03;;;2.90;;
63218;SDS011;49320;52.512;13.448;2024-02-14T10:39:26;4.55;;;2.47;;
63218;SDS011;49320;52.512;13.448;2024-02-14T10:41:55;4.53;;;2.53;;
63218;SDS011;49320;52.512;13.448;2024-02-14T10:44:22;4.72;;;2.47;;
63218;SDS011;49320;52.512;13.448;2024-02-14T10:46:49;3.67;;;2.30;;
63218;SDS011;49320;52.512;13.448;2024-02-14T10:49:21;4.88;;;2.40;;
63218;SDS011;49320;52.512;13.448;2024-02-14T10:51:52;5.20;;;2.28;;
63218;SDS011;49320;52.512;13.448;2024-02-14T10:54:20;4.00;;;2.17;;
63218;SDS011;49320;52.512;13.448;2024-02-14T10:56:48;4.13;;;2.22;;
63218;SDS011;49320;52.512;13.448;2024-02-14T10:59:19;3.53;;;2.58;;
63218;SDS011;49320;52.512;13.448;2024-02-14T11:01:49;5.72;;;2.70;;
63218;SDS011;49320;52.512;13.448;2024-02-14T11:04:17;3.28;;;2.10;;
63218;SDS011;49320;52.512;13.448;2024-02-14T11:06:46;3.92;;;2.50;;
63218;SDS011;49320;52.512;13.448;2024-02-14T11:09:14;3.63;;;2.42;;
63218;SDS011;49320;52.512;13.448;2024-02-14T11:11:42;3.55;;;2.28;;
63218;SDS011;49320;52.512;13.448;2024-02-14T11:14:18;4.45;;;2.38;;
63218;SDS011;49320;52.512;13.448;2024-02-14T11:16:45;2.95;;;2.22;;
63218;SDS011;49320;52.512;13.448;2024-02-14T11:19:12;3.33;;;2.38;;
63218;SDS011;49320;52.512;13.448;2024-02-14T11:21:41;3.17;;;2.40;;
63218;SDS011;49320;52.512;13.448;2024-02-14T11:24:15;4.90;;;2.90;;
63218;SDS011;49320;52.512;13.448;2024-02-14T11:26:46;3.80;;;2.75;;
63218;SDS011;49320;52.512;13.448;2024-02-14T11:29:15;3.38;;;2.55;;
63218;SDS011;49320;52.512;13.448;2024-02-14T11:31:49;5.20;;;2.50;;
63218;SDS011;49320;52.512;13.448;2024-02-14T11:34:26;3.42;;;2.25;;
63218;SDS011;49320;52.512;13.448;2024-02-14T11:36:54;3.95;;;2.53;;
63218;SDS011;49320;52.512;13.448;2024-02-14T11:39:20;4.43;;;2.45;;
63218;SDS011;49320;52.512;13.448;2024-02-14T11:41:48;4.75;;;2.35;;
63218;SDS011;49320;52.512;13.448;2024-02-14T11:44:15;3.80;;;2.17;;
63218;SDS011;49320;52.512;13.448;2024-02-14T11:46:42;3.00;;;1.98;;
63218;SDS011;49320;52.512;13.448;2024-02-14T11:49:09;3.00;;;1.88;;
63218;SDS011;49320;52.512;13.448;2024-02-14T11:51:36;4.07;;;2.72;;
63218;SDS011;49320;52.512;13.448;2024-02-14T11:54:04;3.67;;;2.55;;
63218;SDS011;49320;52.512;13.448;2024-02-14T11:56:34;2.92;;;2.10;;
63218;SDS011;49320;52.512;13.448;2024-02-14T11:59:04;3.15;;;2.17;;
63218;SDS011;49320;52.512;13.448;2024-02-14T12:01:34;3.15;;;1.92;;
63218;SDS011;49320;52.512;13.448;2024-02-14T12:04:06;4.80;;;2.75;;
63218;SDS011;49320;52.512;13.448;2024-02-14T12:06:36;3.53;;;1.90;;
63218;SDS011;49320;52.512;13.448;2024-02-14T12:09:09;3.58;;;2.05;;
63218;SDS011;49320;52.512;13.448;2024-02-14T12:11:40;5.57;;;2.22;;
63218;SDS011;49320;52.512;13.448;2024-02-14T12:14:10;3.58;;;2.10;;
63218;SDS011;49320;52.512;13.448;2024-02-14T12:16:38;4.40;;;2.38;;
63218;SDS011;49320;52.512;13.448;2024-02-14T12:19:09;3.42;;;2.30;;
63218;SDS011;49320;52.512;13.448;2024-02-14T12:21:42;3.75;;;1.85;;
63218;SDS011;49320;52.512;13.448;2024-02-14T12:24:13;4.00;;;2.20;;
63218;SDS011;49320;52.512;13.448;2024-02-14T12:26:41;3.83;;;2.70;;
63218;SDS011;49320;52.512;13.448;2024-02-14T12:29:11;3.53;;;2.30;;
63218;SDS011;49320;52.512;13.448;2024-02-14T12:31:39;3.95;;;2.55;;
63218;SDS011;49320;52.512;13.448;2024-02-14T12:34:06;4.55;;;2.70;;
63218;SDS011;49320;52.512;13.448;2024-02-14T12:36:34;3.80;;;2.35;;
63218;SDS011;49320;52.512;13.448;2024-02-14T12:39:01;4.10;;;2.75;;
63218;SDS011;49320;52.512;13.448;2024-02-14T12:41:29;3.67;;;2.38;;
63218;SDS011;49320;52.512;13.448;2024-02-14T12:43:58;2.97;;;2.17;;
63218;SDS011;49320;52.512;13.448;2024-02-14T12:46:27;4.07;;;2.60;;
63218;SDS011;49320;52.512;13.448;2024-02-14T12:48:54;4.55;;;2.40;;
63218;SDS011;49320;52.512;13.448;2024-02-14T12:51:21;3.08;;;2.30;;
63218;SDS011;49320;52.512;13.448;2024-02-14T12:53:48;4.30;;;2.70;;
63218;SDS011;49320;52.512;13.448;2024-02-14T12:56:15;3.72;;;2.00;;
63218;SDS011;49320;52.512;13.448;2024-02-14T12:58:42;3.42;;;2.10;;
63218;SDS011;49320;52.512;13.448;2024-02-14T13:01:09;3.53;;;2.47;;
63218;SDS011;49320;52.512;13.448;2024-02-14T13:03:38;3.20;;;1.92;;
63218;SDS011;49320;52.512;13.448;2024-02-14T13:06:05;3.75;;;2.28;;
63218;SDS011;49320;52.512;13.448;2024-02-14T13:08:32;5.40;;;2.70;;
63218;SDS011;49320;52.512;13.448;2024-02-14T13:10:59;3.08;;;2.53;;
63218;SDS011;49320;52.512;13.448;2024-02-14T13:13:26;5.78;;;2.38;;
63218;SDS011;49320;52.512;13.448;2024-02-14T13:15:56;4.78;;;2.58;;
63218;SDS011;49320;52.512;13.448;2024-02-14T13:18:23;3.90;;;2.10;;
63218;SDS011;49320;52.512;13.448;2024-02-14T13:20:50;6.30;;;2.55;;
63218;SDS011;49320;52.512;13.448;2024-02-14T13:23:23;3.13;;;2.10;;
63218;SDS011;49320;52.512;13.448;2024-02-14T13:25:51;4.35;;;2.50;;
63218;SDS011;49320;52.512;13.448;2024-02-14T13:28:18;3.55;;;2.72;;
63218;SDS011;49320;52.512;13.448;2024-02-14T13:30:46;4.05;;;2.40;;
63218;SDS011;49320;52.512;13.448;2024-02-14T13:33:13;4.93;;;2.10;;
63218;SDS011;49320;52.512;13.448;2024-02-14T13:35:40;3.47;;;2.28;;
63218;SDS011;49320;52.512;13.448;2024-02-14T13:38:07;3.33;;;2.20;;
63218;SDS011;49320;52.512;13.448;2024-02-14T13:40:36;2.42;;;1.90;;
63218;SDS011;49320;52.512;13.448;2024-02-14T13:43:02;5.70;;;2.45;;
63218;SDS011;49320;52.512;13.448;2024-02-14T13:45:43;3.22;;;2.20;;
63218;SDS011;49320;52.512;13.448;2024-02-14T13:48:11;4.30;;;2.50;;
63218;SDS011;49320;52.512;13.448;2024-02-14T13:50:39;3.88;;;2.38;;
63218;SDS011;49320;52.512;13.448;2024-02-14T13:53:08;3.28;;;2.25;;
63218;SDS011;49320;52.512;13.448;2024-02-14T13:55:35;3.63;;;2.58;;
63218;SDS011;49320;52.512;13.448;2024-02-14T13:58:02;4.30;;;2.55;;
63218;SDS011;49320;52.512;13.448;2024-02-14T14:00:29;2.90;;;1.92;;
63218;SDS011;49320;52.512;13.448;2024-02-14T14:02:56;3.28;;;2.38;;
63218;SDS011;49320;52.512;13.448;2024-02-14T14:05:23;3.45;;;2.78;;
63218;SDS011;49320;52.512;13.448;2024-02-14T14:07:50;3.70;;;2.92;;
63218;SDS011;49320;52.512;13.448;2024-02-14T14:10:24;4.88;;;2.92;;
63218;SDS011;49320;52.512;13.448;2024-02-14T14:12:54;2.42;;;1.90;;
63218;SDS011;49320;52.512;13.448;2024-02-14T14:15:21;3.03;;;2.20;;
63218;SDS011;49320;52.512;13.448;2024-02-14T14:17:49;3.00;;;2.10;;
63218;SDS011;49320;52.512;13.448;2024-02-14T14:20:17;3.97;;;2.10;;
63218;SDS011;49320;52.512;13.448;2024-02-14T14:22:46;3.08;;;2.38;;
63218;SDS011;49320;52.512;13.448;2024-02-14T14:25:13;4.03;;;2.70;;
63218;SDS011;49320;52.512;13.448;2024-02-14T14:27:40;4.00;;;2.60;;
63218;SDS011;49320;52.512;13.448;2024-02-14T14:30:06;3.03;;;2.28;;
63218;SDS011;49320;52.512;13.448;2024-02-14T14:32:34;3.88;;;2.53;;
63218;SDS011;49320;52.512;13.448;2024-02-14T14:35:01;4.30;;;2.60;;
63218;SDS011;49320;52.512;13.448;2024-02-14T14:37:28;3.63;;;2.78;;